Time;durP1;ratioP1;P1;durP2;ratioP2;P2;SDS_P1;SDS_P2;PMS_P1;PMS_P2;Temp;Humidity;BMP_temperature;BMP_pressure;BME280_temperature;BME280_humidity;BME280_pressure;Samples;Min_cycle;Max_cycle;Signal;HPM_P1;HPM_P2
2021/09/18 00:01:26;;;;;;;9.32;7.65;;;15.60;99.90;;;;;;5054642;28;20095;-86
2021/09/18 00:03:53;;;;;;;9.27;7.47;;;15.60;99.90;;;;;;5028188;28;20025;-86
2021/09/18 00:06:19;;;;;;;9.63;7.20;;;15.60;99.90;;;;;;5027412;28;20017;-85
2021/09/18 00:08:45;;;;;;;9.88;8.27;;;15.50;99.90;;;;;;5036226;28;20102;-86
2021/09/18 00:11:11;;;;;;;9.27;7.25;;;15.40;99.90;;;;;;5018237;28;20104;-86
2021/09/18 00:13:37;;;;;;;8.70;7.25;;;15.40;99.90;;;;;;5022702;28;20051;-86
2021/09/18 00:16:04;;;;;;;8.82;6.82;;;15.40;99.90;;;;;;5026662;28;20049;-86
2021/09/18 00:18:30;;;;;;;9.30;6.97;;;15.30;99.90;;;;;;5029858;28;20548;-86
2021/09/18 00:20:58;;;;;;;9.65;6.80;;;15.40;99.90;;;;;;5003833;28;20103;-85
2021/09/18 00:23:24;;;;;;;7.55;6.20;;;15.30;99.90;;;;;;5050291;28;20437;-85
2021/09/18 00:25:50;;;;;;;7.78;6.47;;;15.40;99.90;;;;;;5042447;28;20096;-86
2021/09/18 00:28:16;;;;;;;7.28;5.70;;;15.30;99.90;;;;;;5036520;28;20045;-85
2021/09/18 00:30:43;;;;;;;7.88;6.50;;;15.30;99.90;;;;;;5021668;28;20059;-85
2021/09/18 00:33:10;;;;;;;7.25;5.97;;;15.30;99.90;;;;;;5033023;28;20039;-84
2021/09/18 00:35:36;;;;;;;7.50;5.97;;;15.20;99.90;;;;;;5022337;28;20025;-86
2021/09/18 00:38:02;;;;;;;7.70;5.82;;;15.20;99.90;;;;;;5027092;28;20053;-85
2021/09/18 00:40:28;;;;;;;7.72;5.93;;;15.20;99.90;;;;;;5029242;28;20029;-85
2021/09/18 00:42:55;;;;;;;7.90;5.88;;;15.20;99.90;;;;;;5020082;28;20030;-85
2021/09/18 00:45:21;;;;;;;7.32;5.85;;;15.20;99.90;;;;;;5032518;28;20074;-85
2021/09/18 00:47:47;;;;;;;7.97;5.82;;;15.20;99.90;;;;;;5041170;28;20029;-86
2021/09/18 00:50:14;;;;;;;6.45;5.70;;;15.10;99.90;;;;;;5053977;28;20021;-85
2021/09/18 00:52:40;;;;;;;7.38;5.72;;;15.10;99.90;;;;;;5021650;28;20060;-86
2021/09/18 00:55:07;;;;;;;7.22;5.93;;;15.10;99.90;;;;;;5032128;28;20032;-84
2021/09/18 00:57:33;;;;;;;7.07;5.82;;;15.00;99.90;;;;;;5020976;28;20078;-85
2021/09/18 01:00:04;;;;;;;7.93;5.47;;;15.00;99.90;;;;;;5027157;28;20112;-85
2021/09/18 01:02:31;;;;;;;7.40;6.40;;;15.00;99.90;;;;;;5028942;28;20032;-85
2021/09/18 01:04:57;;;;;;;7.30;5.85;;;14.90;99.90;;;;;;5035073;28;20021;-85
2021/09/18 01:07:24;;;;;;;7.47;5.47;;;14.90;99.90;;;;;;5037215;28;20128;-85
2021/09/18 01:09:50;;;;;;;6.25;5.43;;;14.90;99.90;;;;;;5045888;28;20033;-85
2021/09/18 01:12:17;;;;;;;7.35;5.80;;;14.80;99.90;;;;;;5044750;28;20028;-85
2021/09/18 01:14:44;;;;;;;6.78;5.55;;;14.80;99.90;;;;;;5037770;28;20033;-85
2021/09/18 01:17:11;;;;;;;7.60;5.82;;;14.80;99.90;;;;;;5032131;28;20102;-85
2021/09/18 01:19:37;;;;;;;8.27;6.47;;;14.80;99.90;;;;;;5021704;28;20029;-85
2021/09/18 01:22:05;;;;;;;9.38;6.72;;;14.70;99.90;;;;;;5025267;28;20033;-85
2021/09/18 01:24:32;;;;;;;8.07;6.25;;;14.70;99.90;;;;;;5015407;28;20405;-86
2021/09/18 01:26:58;;;;;;;7.68;6.15;;;14.60;99.90;;;;;;5049635;28;20025;-85
2021/09/18 01:29:24;;;;;;;7.90;6.53;;;14.60;99.90;;;;;;5036694;28;20013;-85
2021/09/18 01:31:50;;;;;;;7.82;6.05;;;14.60;99.90;;;;;;5045469;28;20031;-85
2021/09/18 01:34:21;;;;;;;7.38;5.93;;;14.60;99.90;;;;;;5026725;28;20495;-86
2021/09/18 01:36:49;;;;;;;8.68;6.70;;;14.60;99.90;;;;;;5019998;28;20033;-85
2021/09/18 01:39:16;;;;;;;7.68;5.88;;;14.50;99.90;;;;;;5031731;28;20083;-85
2021/09/18 01:41:44;;;;;;;7.07;5.53;;;14.50;99.90;;;;;;5039628;28;20111;-85
2021/09/18 01:44:15;;;;;;;6.10;5.20;;;14.50;99.90;;;;;;5025331;28;20025;-85
2021/09/18 01:46:42;;;;;;;7.60;5.68;;;14.50;99.90;;;;;;5030407;28;20389;-85
2021/09/18 01:49:13;;;;;;;6.75;5.25;;;14.50;99.90;;;;;;5019470;28;20041;-85
2021/09/18 01:51:53;;;;;;;7.75;5.47;;;14.50;99.90;;;;;;5047522;28;20025;-85
2021/09/18 01:54:19;;;;;;;6.88;5.75;;;14.50;99.90;;;;;;5027244;28;20125;-85
2021/09/18 01:56:45;;;;;;;7.22;5.57;;;14.40;99.90;;;;;;5020106;28;20112;-84
2021/09/18 01:59:11;;;;;;;6.82;5.45;;;14.40;99.90;;;;;;5032055;28;20512;-85
2021/09/18 02:01:37;;;;;;;6.97;5.70;;;14.40;99.90;;;;;;5039203;28;20078;-86
2021/09/18 02:04:03;;;;;;;7.57;5.63;;;14.40;99.90;;;;;;5026017;28;20029;-86
2021/09/18 02:06:29;;;;;;;7.43;5.97;;;14.40;99.90;;;;;;5045906;28;20025;-86
2021/09/18 02:08:55;;;;;;;6.72;5.32;;;14.30;99.90;;;;;;5018808;28;20037;-85
2021/09/18 02:11:21;;;;;;;5.82;4.85;;;14.40;99.90;;;;;;5049199;28;20492;-86
2021/09/18 02:13:47;;;;;;;6.07;4.82;;;14.30;99.90;;;;;;5022641;28;20021;-85
2021/09/18 02:16:13;;;;;;;7.20;4.95;;;14.30;99.90;;;;;;5024782;28;20022;-86
2021/09/18 02:18:41;;;;;;;5.95;4.97;;;14.30;99.90;;;;;;5013345;28;20037;-86
2021/09/18 02:21:07;;;;;;;6.32;4.55;;;14.30;99.90;;;;;;5018983;28;20053;-85
2021/09/18 02:23:33;;;;;;;6.18;4.28;;;14.30;99.90;;;;;;5029538;28;20049;-86
2021/09/18 02:25:59;;;;;;;5.85;4.63;;;14.20;99.90;;;;;;5024335;28;20028;-86
2021/09/18 02:28:26;;;;;;;6.68;4.63;;;14.20;99.90;;;;;;5044092;28;20023;-86
2021/09/18 02:30:52;;;;;;;5.22;4.20;;;14.20;99.90;;;;;;5034697;28;20064;-85
2021/09/18 02:33:18;;;;;;;5.43;4.20;;;14.10;99.90;;;;;;5022575;28;20018;-85
2021/09/18 02:35:44;;;;;;;6.43;4.47;;;14.10;99.90;;;;;;5032379;28;20022;-85
2021/09/18 02:38:10;;;;;;;5.78;4.38;;;14.10;99.90;;;;;;5029228;28;20035;-85
2021/09/18 02:40:37;;;;;;;5.80;4.47;;;14.10;99.90;;;;;;5025040;28;20063;-85
2021/09/18 02:43:04;;;;;;;7.03;4.30;;;14.10;99.90;;;;;;5035521;28;20067;-85
2021/09/18 02:45:31;;;;;;;5.70;4.20;;;14.10;99.90;;;;;;5023487;28;20029;-85
2021/09/18 02:47:57;;;;;;;5.63;4.20;;;14.10;99.90;;;;;;5030455;28;20029;-85
2021/09/18 02:50:24;;;;;;;4.70;3.80;;;14.10;99.90;;;;;;5048586;28;20037;-86
2021/09/18 02:52:51;;;;;;;6.07;4.35;;;14.10;99.90;;;;;;5022424;28;20171;-86
2021/09/18 02:55:17;;;;;;;4.90;3.63;;;14.00;99.90;;;;;;5052342;28;20057;-85
2021/09/18 02:57:44;;;;;;;5.65;3.95;;;14.00;99.90;;;;;;5025178;28;20025;-85
2021/09/18 03:00:11;;;;;;;4.97;3.85;;;14.00;99.90;;;;;;5028583;28;20036;-85
2021/09/18 03:02:38;;;;;;;4.70;3.70;;;13.90;99.90;;;;;;5032830;28;20022;-84
2021/09/18 03:05:06;;;;;;;5.25;4.10;;;13.90;99.90;;;;;;5039757;28;20033;-85
2021/09/18 03:07:33;;;;;;;5.75;3.83;;;13.90;99.90;;;;;;5051230;28;20063;-85
2021/09/18 03:09:59;;;;;;;5.38;4.00;;;13.90;99.90;;;;;;5027369;28;20370;-86
2021/09/18 03:12:25;;;;;;;4.82;3.58;;;13.90;99.90;;;;;;5025927;28;20490;-85
2021/09/18 03:14:51;;;;;;;5.07;3.88;;;13.90;99.90;;;;;;5033713;28;20163;-85
2021/09/18 03:17:17;;;;;;;5.28;3.70;;;13.90;99.90;;;;;;5021574;28;20108;-85
2021/09/18 03:19:42;;;;;;;5.13;4.00;;;13.80;99.90;;;;;;5031228;28;20451;-85
2021/09/18 03:22:09;;;;;;;6.72;4.00;;;13.80;99.90;;;;;;5028088;28;20028;-85
2021/09/18 03:24:35;;;;;;;4.55;3.63;;;13.80;99.90;;;;;;5023846;28;20041;-85
2021/09/18 03:27:01;;;;;;;5.38;3.83;;;13.80;99.90;;;;;;5017967;28;20084;-86
2021/09/18 03:29:27;;;;;;;5.22;3.72;;;13.80;99.90;;;;;;5039804;28;20025;-86
2021/09/18 03:31:53;;;;;;;5.65;3.67;;;13.80;99.90;;;;;;5029786;28;20033;-85
2021/09/18 03:34:18;;;;;;;5.20;3.83;;;13.80;99.90;;;;;;5029588;28;20024;-86
2021/09/18 03:36:44;;;;;;;6.93;3.88;;;13.80;99.90;;;;;;5040520;28;20021;-86
2021/09/18 03:39:11;;;;;;;5.53;3.63;;;13.80;99.90;;;;;;5033505;28;20503;-85
2021/09/18 03:41:37;;;;;;;4.50;3.63;;;13.70;99.90;;;;;;5023778;28;20074;-85
2021/09/18 03:44:03;;;;;;;6.07;4.28;;;13.70;99.90;;;;;;5028435;28;20077;-86
2021/09/18 03:46:29;;;;;;;5.53;3.22;;;13.70;99.90;;;;;;5031009;28;20082;-87
2021/09/18 03:48:55;;;;;;;6.82;4.55;;;13.70;99.90;;;;;;5021548;28;20042;-85
2021/09/18 03:51:21;;;;;;;5.80;3.88;;;13.60;99.90;;;;;;5033997;28;20017;-85
2021/09/18 03:53:47;;;;;;;6.28;3.90;;;13.60;99.90;;;;;;5024304;28;20539;-86
2021/09/18 03:56:13;;;;;;;5.25;3.92;;;13.60;99.90;;;;;;5026677;28;20116;-86
2021/09/18 03:58:39;;;;;;;5.45;4.03;;;13.60;99.90;;;;;;5031404;28;20473;-86
2021/09/18 04:01:05;;;;;;;5.72;4.03;;;13.60;99.90;;;;;;5020689;28;20026;-86
2021/09/18 04:03:31;;;;;;;8.27;4.93;;;13.60;99.90;;;;;;5032181;28;20524;-85
2021/09/18 04:05:57;;;;;;;5.32;3.53;;;13.50;99.90;;;;;;5025213;28;20061;-86
2021/09/18 04:08:23;;;;;;;5.68;3.90;;;13.50;99.90;;;;;;5021510;28;20073;-85
2021/09/18 04:10:49;;;;;;;5.60;3.97;;;13.50;99.90;;;;;;5029024;28;20029;-85
2021/09/18 04:13:15;;;;;;;6.18;4.05;;;13.50;99.90;;;;;;5018190;28;20036;-86
2021/09/18 04:15:41;;;;;;;6.85;4.05;;;13.50;99.90;;;;;;5027356;28;20022;-86
2021/09/18 04:18:07;;;;;;;7.40;4.45;;;13.50;99.90;;;;;;5023607;28;20068;-85
2021/09/18 04:20:33;;;;;;;5.00;3.53;;;13.50;99.90;;;;;;5019689;28;20110;-85
2021/09/18 04:22:59;;;;;;;6.05;4.00;;;13.40;99.90;;;;;;5029890;28;20025;-86
2021/09/18 04:25:25;;;;;;;6.20;4.70;;;13.40;99.90;;;;;;5017663;28;20511;-85
2021/09/18 04:27:51;;;;;;;5.68;3.90;;;13.40;99.90;;;;;;5025570;28;20053;-85
2021/09/18 04:30:18;;;;;;;5.43;3.85;;;13.40;99.90;;;;;;5024749;28;20025;-86
2021/09/18 04:32:44;;;;;;;6.53;4.30;;;13.40;99.90;;;;;;5018379;28;20490;-85
2021/09/18 04:35:10;;;;;;;7.53;4.68;;;13.40;99.90;;;;;;5029524;28;20112;-85
2021/09/18 04:37:35;;;;;;;6.55;3.85;;;13.40;99.90;;;;;;5018953;28;20033;-85
2021/09/18 04:40:02;;;;;;;5.82;3.90;;;13.40;99.90;;;;;;5024897;28;20038;-85
2021/09/18 04:42:28;;;;;;;5.72;4.00;;;13.40;99.90;;;;;;5025898;28;20034;-85
2021/09/18 04:44:55;;;;;;;6.00;3.95;;;13.40;99.90;;;;;;5017814;28;20033;-85
2021/09/18 04:47:21;;;;;;;7.53;4.65;;;13.40;99.90;;;;;;5030855;28;20466;-84
2021/09/18 04:49:47;;;;;;;4.78;3.47;;;13.30;99.90;;;;;;5021099;28;20104;-84
2021/09/18 04:52:13;;;;;;;7.00;4.30;;;13.40;99.90;;;;;;5022422;28;20551;-84
2021/09/18 04:54:39;;;;;;;7.00;4.45;;;13.30;99.90;;;;;;5028324;28;20031;-85
2021/09/18 04:57:05;;;;;;;5.72;4.13;;;13.30;99.90;;;;;;5016361;28;20018;-85
2021/09/18 04:59:32;;;;;;;8.38;4.72;;;13.30;99.90;;;;;;5027760;28;20474;-85
2021/09/18 05:01:58;;;;;;;7.35;4.50;;;13.30;99.90;;;;;;5021500;28;20028;-86
2021/09/18 05:04:24;;;;;;;6.75;5.18;;;13.30;99.90;;;;;;5020386;28;20021;-85
2021/09/18 05:06:50;;;;;;;6.22;4.88;;;13.30;99.90;;;;;;5013476;28;20064;-85
2021/09/18 05:09:17;;;;;;;6.97;5.30;;;13.30;99.90;;;;;;5019611;28;20025;-86
2021/09/18 05:11:43;;;;;;;7.43;5.47;;;13.30;99.90;;;;;;5046679;28;20441;-85
2021/09/18 05:14:09;;;;;;;9.45;6.57;;;13.40;99.90;;;;;;5026054;28;20033;-85
2021/09/18 05:16:35;;;;;;;9.25;6.53;;;13.40;99.90;;;;;;5022271;28;20032;-85
2021/09/18 05:19:01;;;;;;;7.53;5.55;;;13.40;99.90;;;;;;5031747;28;20029;-85
2021/09/18 05:21:27;;;;;;;8.80;6.65;;;13.40;99.90;;;;;;5037805;28;20013;-85
2021/09/18 05:23:53;;;;;;;8.98;6.35;;;13.40;99.90;;;;;;5027653;28;20326;-86
2021/09/18 05:26:21;;;;;;;10.48;6.32;;;13.40;99.90;;;;;;5027247;28;20021;-86
2021/09/18 05:28:47;;;;;;;8.68;6.20;;;13.50;99.90;;;;;;5037881;28;20109;-85
2021/09/18 05:31:13;;;;;;;9.52;6.30;;;13.50;99.90;;;;;;5031967;28;20021;-85
2021/09/18 05:33:39;;;;;;;10.45;7.13;;;13.50;99.90;;;;;;5021812;28;20032;-86
2021/09/18 05:36:05;;;;;;;8.05;6.30;;;13.50;99.90;;;;;;5025488;28;20029;-85
2021/09/18 05:38:31;;;;;;;9.82;6.93;;;13.50;99.90;;;;;;5028862;28;20055;-86
2021/09/18 05:40:57;;;;;;;8.75;6.65;;;13.50;99.90;;;;;;5036244;28;20032;-85
2021/09/18 05:43:23;;;;;;;9.63;7.20;;;13.50;99.90;;;;;;5031538;28;20025;-85
2021/09/18 05:45:49;;;;;;;8.20;6.10;;;13.50;99.90;;;;;;5023085;28;20029;-85
2021/09/18 05:48:16;;;;;;;8.32;6.35;;;13.50;99.90;;;;;;5024854;28;20099;-85
2021/09/18 05:50:42;;;;;;;10.52;7.25;;;13.50;99.90;;;;;;5030070;28;20021;-86
2021/09/18 05:53:10;;;;;;;8.68;6.78;;;13.50;99.90;;;;;;5019356;28;20025;-86
2021/09/18 05:55:36;;;;;;;10.27;6.88;;;13.60;99.90;;;;;;5029416;28;20429;-86
2021/09/18 05:58:03;;;;;;;8.85;6.55;;;13.60;99.90;;;;;;5024715;28;20123;-86
2021/09/18 06:00:30;;;;;;;9.48;7.10;;;13.60;99.90;;;;;;5006448;28;20438;-85
2021/09/18 06:02:56;;;;;;;10.80;7.35;;;13.60;99.90;;;;;;5031442;28;20048;-86
2021/09/18 06:05:22;;;;;;;10.35;7.50;;;13.70;99.90;;;;;;5018930;28;20017;-86
2021/09/18 06:07:48;;;;;;;10.38;7.88;;;13.70;99.90;;;;;;5017895;28;20041;-85
2021/09/18 06:10:14;;;;;;;10.70;7.35;;;13.70;99.90;;;;;;5022017;28;21179;-85
2021/09/18 06:12:42;;;;;;;10.68;7.45;;;13.80;99.90;;;;;;5019339;28;20029;-85
2021/09/18 06:15:08;;;;;;;9.32;7.57;;;13.80;99.90;;;;;;5018806;28;20088;-86
2021/09/18 06:17:35;;;;;;;13.80;8.40;;;13.90;99.90;;;;;;5004269;28;20026;-85
2021/09/18 06:20:01;;;;;;;13.98;8.38;;;13.90;99.90;;;;;;5019821;28;20026;-85
2021/09/18 06:22:27;;;;;;;11.20;8.00;;;14.00;99.90;;;;;;5022427;28;20363;-85
2021/09/18 06:24:53;;;;;;;12.95;9.27;;;14.00;99.90;;;;;;5014228;28;20052;-85
2021/09/18 06:27:19;;;;;;;11.18;8.05;;;14.10;99.90;;;;;;5013155;28;20021;-85
2021/09/18 06:29:46;;;;;;;14.20;9.30;;;14.10;99.90;;;;;;5022945;28;20038;-86
2021/09/18 06:32:12;;;;;;;13.95;8.63;;;14.10;99.90;;;;;;5021548;28;20440;-85
2021/09/18 06:34:39;;;;;;;14.90;8.50;;;14.20;99.90;;;;;;5016244;28;20479;-86
2021/09/18 06:37:05;;;;;;;12.40;9.00;;;14.30;99.90;;;;;;5026550;28;20041;-86
2021/09/18 06:39:33;;;;;;;9.95;8.25;;;14.30;99.90;;;;;;5014488;28;20026;-85
2021/09/18 06:42:00;;;;;;;10.65;8.02;;;14.40;99.90;;;;;;5020714;28;20034;-86
2021/09/18 06:44:26;;;;;;;12.13;7.80;;;14.50;99.90;;;;;;5021969;28;20581;-86
2021/09/18 06:46:52;;;;;;;10.63;7.32;;;14.60;99.90;;;;;;5013103;28;20884;-86
2021/09/18 06:49:18;;;;;;;11.68;8.00;;;14.60;99.90;;;;;;5011860;28;20033;-86
2021/09/18 06:51:44;;;;;;;13.50;7.70;;;14.70;99.90;;;;;;5002560;28;20049;-84
2021/09/18 06:54:10;;;;;;;13.57;7.65;;;14.80;99.90;;;;;;5004010;28;20116;-85
2021/09/18 06:56:37;;;;;;;11.40;7.15;;;14.90;99.90;;;;;;5017212;28;20458;-85
2021/09/18 06:59:04;;;;;;;10.93;8.38;;;15.00;99.90;;;;;;5027722;28;20461;-86
2021/09/18 07:01:30;;;;;;;11.65;8.50;;;15.00;99.90;;;;;;5016410;28;20091;-85
2021/09/18 07:03:57;;;;;;;10.90;8.23;;;15.10;99.90;;;;;;5023001;28;20025;-85
2021/09/18 07:06:23;;;;;;;9.30;7.80;;;15.10;99.90;;;;;;5022590;28;20496;-85
2021/09/18 07:08:48;;;;;;;11.95;8.23;;;15.20;99.90;;;;;;5013812;28;20050;-84
2021/09/18 07:11:14;;;;;;;11.73;8.70;;;15.20;99.90;;;;;;5025941;28;20462;-85
2021/09/18 07:13:40;;;;;;;10.20;7.72;;;15.30;99.90;;;;;;5016652;28;20021;-84
2021/09/18 07:16:05;;;;;;;15.48;8.70;;;15.40;99.90;;;;;;5023510;28;20466;-84
2021/09/18 07:18:32;;;;;;;13.77;9.68;;;15.40;99.90;;;;;;5026171;28;20193;-85
2021/09/18 07:20:58;;;;;;;15.43;10.07;;;15.60;99.90;;;;;;5018209;28;20022;-85
2021/09/18 07:23:24;;;;;;;14.52;9.27;;;15.60;99.90;;;;;;5032016;28;20033;-84
2021/09/18 07:25:50;;;;;;;10.63;8.38;;;15.70;99.90;;;;;;5023427;28;20022;-85
2021/09/18 07:28:16;;;;;;;11.30;8.98;;;15.80;99.90;;;;;;5023637;28;20116;-85
2021/09/18 07:30:43;;;;;;;9.70;8.23;;;15.80;99.90;;;;;;5029307;28;20508;-85
2021/09/18 07:33:09;;;;;;;15.63;8.50;;;15.90;99.90;;;;;;5018143;28;20033;-85
2021/09/18 07:35:35;;;;;;;13.18;9.00;;;15.90;99.90;;;;;;5028930;28;20172;-85
2021/09/18 07:38:03;;;;;;;11.65;9.20;;;16.00;99.90;;;;;;5023409;28;20488;-85
2021/09/18 07:40:34;;;;;;;14.48;10.20;;;16.00;99.90;;;;;;5034963;28;20080;-84
2021/09/18 07:43:00;;;;;;;12.50;9.30;;;16.00;99.90;;;;;;5017833;28;20120;-85
2021/09/18 07:45:26;;;;;;;12.27;9.13;;;16.10;99.90;;;;;;5014507;28;20030;-84
2021/09/18 07:47:55;;;;;;;12.93;9.23;;;16.20;99.90;;;;;;5018531;28;20036;-84
2021/09/18 07:50:21;;;;;;;12.30;9.30;;;16.30;99.90;;;;;;5027083;28;20453;-84
2021/09/18 07:52:47;;;;;;;11.77;9.38;;;16.40;99.90;;;;;;5018533;28;20089;-84
2021/09/18 07:55:13;;;;;;;10.52;8.32;;;16.40;99.90;;;;;;5030436;28;20025;-85
2021/09/18 07:57:38;;;;;;;12.85;8.73;;;16.50;99.90;;;;;;5020182;28;20109;-84
2021/09/18 08:00:06;;;;;;;11.18;8.80;;;16.60;99.90;;;;;;5024406;28;20390;-84
2021/09/18 08:02:32;;;;;;;11.20;8.98;;;16.60;99.90;;;;;;5028726;28;20192;-84
2021/09/18 08:04:57;;;;;;;11.88;8.75;;;16.60;99.90;;;;;;5033313;28;20437;-83
2021/09/18 08:07:23;;;;;;;12.90;9.65;;;16.60;99.90;;;;;;5022756;28;20045;-85
2021/09/18 08:09:49;;;;;;;12.35;9.55;;;16.70;99.90;;;;;;5055065;28;20351;-84
2021/09/18 08:12:16;;;;;;;12.63;10.02;;;16.80;99.90;;;;;;5026016;28;20026;-84
2021/09/18 08:14:43;;;;;;;14.32;9.13;;;16.80;99.90;;;;;;5031542;28;20520;-84
2021/09/18 08:17:10;;;;;;;10.38;8.30;;;16.80;99.90;;;;;;5020470;28;20025;-84
2021/09/18 08:19:36;;;;;;;10.50;8.38;;;16.90;99.90;;;;;;5014837;28;20038;-84
2021/09/18 08:22:02;;;;;;;11.98;9.77;;;17.00;99.90;;;;;;5026105;28;20104;-84
2021/09/18 08:24:28;;;;;;;11.80;9.02;;;17.00;99.90;;;;;;5036216;28;20109;-85
2021/09/18 08:26:53;;;;;;;11.68;9.55;;;17.00;99.90;;;;;;5020344;28;20363;-84
2021/09/18 08:29:19;;;;;;;11.98;10.45;;;17.10;99.90;;;;;;5036460;28;20016;-84
2021/09/18 08:31:49;;;;;;;12.18;9.48;;;17.20;99.90;;;;;;5029701;28;20378;-85
2021/09/18 08:34:15;;;;;;;14.18;11.57;;;17.30;99.90;;;;;;5044938;28;20107;-85
2021/09/18 08:36:42;;;;;;;11.60;9.85;;;17.40;99.90;;;;;;5035960;28;20067;-85
2021/09/18 08:39:07;;;;;;;12.43;10.43;;;17.40;99.90;;;;;;5037509;28;20371;-85
2021/09/18 08:41:33;;;;;;;12.43;10.00;;;17.60;99.90;;;;;;5031139;28;20067;-85
2021/09/18 08:43:59;;;;;;;14.05;11.80;;;17.70;99.90;;;;;;5024735;28;20017;-85
2021/09/18 08:46:28;;;;;;;13.15;10.50;;;17.80;99.90;;;;;;5054088;28;20071;-86
2021/09/18 08:48:55;;;;;;;13.60;11.20;;;18.00;99.90;;;;;;5020032;28;20448;-85
2021/09/18 08:51:22;;;;;;;15.15;11.27;;;18.10;99.90;;;;;;5019816;28;20021;-85
2021/09/18 08:53:48;;;;;;;13.23;11.13;;;18.30;99.90;;;;;;5012119;28;20037;-85
2021/09/18 08:56:16;;;;;;;13.35;10.82;;;18.50;99.90;;;;;;5044935;28;20078;-85
2021/09/18 08:58:43;;;;;;;12.93;10.57;;;18.60;99.90;;;;;;5053880;28;20028;-85
2021/09/18 09:01:12;;;;;;;12.82;10.75;;;18.70;99.90;;;;;;5019112;28;20385;-86
2021/09/18 09:03:39;;;;;;;13.02;10.95;;;18.80;99.90;;;;;;5016349;28;20118;-86
2021/09/18 09:06:11;;;;;;;15.27;11.35;;;19.00;99.90;;;;;;5005461;28;20056;-85
2021/09/18 09:08:39;;;;;;;;;;;19.20;99.90;;;;;;5046477;28;20061;-85
2021/09/18 09:11:27;;;;;;;12.75;9.30;;;19.20;99.90;;;;;;5036177;28;19962;-86
2021/09/18 09:13:59;;;;;;;12.68;10.57;;;19.30;99.90;;;;;;5008611;28;20035;-85
2021/09/18 09:16:27;;;;;;;13.48;10.52;;;19.30;99.90;;;;;;5040949;28;20025;-85
2021/09/18 09:18:53;;;;;;;12.77;10.50;;;19.40;99.90;;;;;;5049417;28;20048;-84
2021/09/18 09:21:22;;;;;;;12.77;10.60;;;19.40;99.90;;;;;;5019214;28;20017;-84
2021/09/18 09:24:08;;;;;;;16.15;13.80;;;19.60;99.90;;;;;;5028293;28;20021;-84
2021/09/18 09:26:37;;;;;;;13.95;11.20;;;19.60;99.90;;;;;;5029226;28;20211;-84
2021/09/18 09:29:03;;;;;;;13.30;10.60;;;19.60;99.90;;;;;;5018990;28;20183;-85
2021/09/18 09:31:33;;;;;;;10.85;9.13;;;19.70;99.90;;;;;;5035545;28;20120;-85
2021/09/18 09:34:18;;;;;;;10.48;9.38;;;19.90;99.90;;;;;;5026688;28;20026;-85
2021/09/18 09:36:49;;;;;;;10.77;8.85;;;20.10;99.90;;;;;;5030019;28;20029;-84
2021/09/18 09:39:22;;;;;;;9.77;8.43;;;20.80;99.90;;;;;;5019090;28;20389;-86
2021/09/18 09:41:54;;;;;;;11.75;9.75;;;22.00;99.90;;;;;;5028256;28;20462;-85
2021/09/18 09:44:23;;;;;;;16.20;14.48;;;23.00;99.90;;;;;;5044824;28;20021;-84
2021/09/18 09:47:12;;;;;;;13.40;10.50;;;24.00;99.90;;;;;;5019854;28;20026;-85
2021/09/18 09:49:49;;;;;;;12.55;9.15;;;25.10;99.90;;;;;;5001742;28;20071;-85
2021/09/18 09:52:36;;;;;;;11.20;9.55;;;25.90;99.90;;;;;;5018933;28;20025;-85
2021/09/18 09:55:12;;;;;;;11.75;9.48;;;26.20;99.90;;;;;;5018445;28;20537;-85
2021/09/18 09:57:43;;;;;;;10.57;9.25;;;26.70;99.90;;;;;;5029122;28;20026;-85
2021/09/18 10:00:15;;;;;;;13.55;12.02;;;27.30;99.90;;;;;;5008854;28;20033;-85
2021/09/18 10:02:45;;;;;;;12.77;11.18;;;27.90;99.90;;;;;;5018753;28;20025;-85
2021/09/18 10:05:15;;;;;;;9.10;8.10;;;28.10;99.90;;;;;;5036257;28;20036;-85
2021/09/18 10:07:43;;;;;;;12.95;11.57;;;28.50;99.90;;;;;;5012521;28;20054;-86
2021/09/18 10:10:12;;;;;;;10.98;9.70;;;28.80;99.90;;;;;;5042833;28;20040;-85
2021/09/18 10:12:40;;;;;;;11.02;8.80;;;29.10;99.90;;;;;;5021068;28;20139;-86
2021/09/18 10:15:11;;;;;;;9.40;7.28;;;29.40;99.90;;;;;;5014742;28;20029;-86
2021/09/18 10:17:42;;;;;;;10.93;9.30;;;29.70;99.90;;;;;;5020776;28;20032;-86
2021/09/18 10:20:12;;;;;;;13.02;10.95;;;30.20;99.90;;;;;;5042881;28;20029;-86
2021/09/18 10:25:34;;;;;;;10.43;8.88;;;30.50;99.10;;;;;;5035958;28;20047;-86
2021/09/18 10:28:17;;;;;;;9.75;7.63;;;30.80;98.80;;;;;;5043886;28;20030;-86
2021/09/18 10:31:11;;;;;;;8.20;7.20;;;31.10;98.40;;;;;;5029550;28;20032;-86
2021/09/18 10:33:45;;;;;;;11.80;10.60;;;31.30;97.90;;;;;;5035366;28;20104;-86
2021/09/18 10:36:40;;;;;;;;;;;31.20;96.70;;;;;;5008664;28;20030;-86
2021/09/18 10:39:17;;;;;;;10.20;7.82;;;31.00;96.80;;;;;;5050227;28;20448;-86
2021/09/18 10:41:49;;;;;;;9.07;7.95;;;31.20;96.70;;;;;;5045700;28;20021;-86
2021/09/18 10:44:18;;;;;;;10.48;8.38;;;31.30;96.50;;;;;;5025655;28;20021;-86
2021/09/18 10:47:31;;;;;;;9.30;8.02;;;31.30;96.10;;;;;;5050126;28;20025;-87
2021/09/18 10:49:59;;;;;;;6.78;6.05;;;31.40;95.80;;;;;;5026509;28;20098;-87
2021/09/18 10:52:34;;;;;;;8.30;7.43;;;31.50;95.30;;;;;;5028381;28;20094;-87
2021/09/18 10:55:07;;;;;;;9.02;7.75;;;31.60;95.10;;;;;;5003904;28;20052;-86
2021/09/18 10:57:49;;;;;;;8.80;7.57;;;31.70;94.90;;;;;;5051458;28;20025;-86
2021/09/18 11:00:33;;;;;;;7.63;6.70;;;32.00;94.00;;;;;;5027291;28;20393;-86
2021/09/18 11:03:05;;;;;;;8.48;7.28;;;32.10;93.40;;;;;;5025914;28;20283;-87
2021/09/18 11:05:46;;;;;;;9.55;8.05;;;32.00;93.10;;;;;;5008981;28;20032;-87
2021/09/18 11:08:25;;;;;;;10.95;8.48;;;31.70;93.20;;;;;;5019616;28;20081;-87
2021/09/18 11:10:52;;;;;;;10.60;9.48;;;31.30;93.30;;;;;;5048679;28;20049;-88
2021/09/18 11:13:22;;;;;;;9.57;8.38;;;31.10;93.00;;;;;;5025394;28;20030;-87
2021/09/18 11:15:57;;;;;;;11.55;8.02;;;31.10;92.90;;;;;;5045619;28;20115;-87
2021/09/18 11:18:43;;;;;;;8.32;7.03;;;31.30;92.70;;;;;;5041970;28;20099;-87
2021/09/18 11:21:28;;;;;;;9.70;7.95;;;31.60;92.50;;;;;;5050118;28;20044;-87
2021/09/18 11:24:00;;;;;;;10.00;8.95;;;31.90;91.90;;;;;;5032878;28;20033;-87
2021/09/18 11:26:41;;;;;;;10.05;8.82;;;32.10;91.20;;;;;;5025168;28;20381;-87
2021/09/18 11:29:45;;;;;;;10.50;8.38;;;32.20;90.90;;;;;;5033852;28;20108;-87
2021/09/18 11:32:21;;;;;;;8.65;7.78;;;32.20;90.10;;;;;;5043847;28;20033;-87
2021/09/18 11:34:55;;;;;;;8.63;7.72;;;32.10;90.30;;;;;;5022394;28;20030;-87
2021/09/18 11:37:35;;;;;;;8.02;6.97;;;32.40;90.00;;;;;;5038946;28;20025;-87
2021/09/18 11:40:10;;;;;;;8.60;7.32;;;32.60;89.20;;;;;;5012321;28;20437;-88
2021/09/18 11:42:43;;;;;;;7.70;6.90;;;32.50;87.70;;;;;;5014836;28;20037;-87
2021/09/18 11:45:23;;;;;;;8.55;7.65;;;32.40;87.50;;;;;;5035785;28;20021;-87
2021/09/18 11:47:56;;;;;;;8.52;7.65;;;32.40;87.30;;;;;;5008520;28;20028;-88
2021/09/18 11:50:31;;;;;;;9.30;8.35;;;32.50;87.20;;;;;;5042941;28;20044;-88
2021/09/18 11:53:12;;;;;;;8.63;7.82;;;32.50;86.70;;;;;;5035634;28;20025;-88
2021/09/18 11:55:52;;;;;;;8.35;7.47;;;32.40;86.70;;;;;;5049349;28;20037;-88
2021/09/18 11:58:28;;;;;;;10.10;8.40;;;32.40;87.00;;;;;;5011589;28;20053;-89
2021/09/18 12:01:21;;;;;;;9.57;8.25;;;32.50;86.80;;;;;;5025511;28;20470;-87
2021/09/18 12:03:51;;;;;;;8.65;7.18;;;32.70;86.20;;;;;;5026266;28;20416;-87
2021/09/18 12:06:21;;;;;;;8.48;7.60;;;32.70;85.90;;;;;;5045902;28;20033;-89
2021/09/18 12:08:49;;;;;;;8.75;7.80;;;32.70;85.30;;;;;;5032662;28;20132;-88
2021/09/18 12:11:21;;;;;;;9.60;8.05;;;32.60;85.10;;;;;;5035850;28;20473;-88
2021/09/18 12:13:56;;;;;;;8.43;7.53;;;32.60;84.70;;;;;;5029040;28;20490;-88
2021/09/18 12:16:25;;;;;;;8.48;7.38;;;32.60;84.50;;;;;;5028472;28;20048;-88
2021/09/18 12:18:56;;;;;;;8.75;7.80;;;32.50;84.30;;;;;;5012542;28;20540;-88
2021/09/18 12:21:33;;;;;;;9.40;7.43;;;32.40;83.90;;;;;;5008702;28;20028;-87
2021/09/18 12:24:12;;;;;;;7.93;6.93;;;32.40;83.80;;;;;;5009845;28;20065;-87
2021/09/18 12:26:43;;;;;;;7.57;6.75;;;32.20;83.50;;;;;;5047152;28;20121;-86
2021/09/18 12:29:14;;;;;;;8.40;6.97;;;32.30;83.50;;;;;;5000618;28;20162;-87
2021/09/18 12:31:42;;;;;;;7.15;6.20;;;32.40;83.20;;;;;;5029583;28;20028;-87
2021/09/18 12:34:11;;;;;;;8.57;7.38;;;32.50;82.60;;;;;;5025959;28;20079;-88
2021/09/18 12:36:38;;;;;;;9.13;7.35;;;32.50;81.90;;;;;;5022479;28;20045;-88
2021/09/18 12:39:06;;;;;;;7.30;6.25;;;32.40;81.80;;;;;;5032712;28;20522;-88
2021/09/18 12:41:41;;;;;;;7.50;6.65;;;32.50;82.20;;;;;;5021478;28;20025;-87
2021/09/18 12:44:16;;;;;;;8.52;7.45;;;32.40;82.00;;;;;;5026721;28;20033;-87
2021/09/18 12:46:54;;;;;;;7.95;7.07;;;32.30;81.70;;;;;;5031017;28;20036;-87
2021/09/18 12:49:24;;;;;;;8.00;6.65;;;32.10;81.40;;;;;;5020334;28;20029;-87
2021/09/18 12:52:05;;;;;;;7.72;6.93;;;31.90;81.50;;;;;;5028835;28;20550;-89
2021/09/18 12:55:01;;;;;;;8.30;7.45;;;31.90;81.80;;;;;;5012830;28;20033;-88